sensor_id;sensor_type;location;lat;lon;timestamp;P1;durP1;ratioP1;P2;durP2;ratioP2
43706;SDS011;61348;53.392;-6.248;2023-02-25T00:00:23;21.15;;;5.90;;
43706;SDS011;61348;53.392;-6.248;2023-02-25T00:03:10;22.38;;;6.05;;
43706;SDS011;61348;53.392;-6.248;2023-02-25T00:05:59;26.73;;;5.35;;
43706;SDS011;61348;53.392;-6.248;2023-02-25T00:08:50;24.67;;;6.20;;
43706;SDS011;61348;53.392;-6.248;2023-02-25T00:11:38;27.80;;;6.65;;
43706;SDS011;61348;53.392;-6.248;2023-02-25T00:14:25;24.73;;;5.70;;
43706;SDS011;61348;53.392;-6.248;2023-02-25T00:17:13;21.20;;;5.95;;
43706;SDS011;61348;53.392;-6.248;2023-02-25T00:20:00;25.15;;;6.05;;
43706;SDS011;61348;53.392;-6.248;2023-02-25T00:22:48;18.58;;;5.90;;
43706;SDS011;61348;53.392;-6.248;2023-02-25T00:25:35;18.80;;;7.43;;
43706;SDS011;61348;53.392;-6.248;2023-02-25T00:28:22;22.20;;;6.32;;
43706;SDS011;61348;53.392;-6.248;2023-02-25T00:31:10;18.08;;;6.10;;
43706;SDS011;61348;53.392;-6.248;2023-02-25T00:33:59;30.23;;;8.00;;
43706;SDS011;61348;53.392;-6.248;2023-02-25T00:36:46;26.25;;;7.90;;
43706;SDS011;61348;53.392;-6.248;2023-02-25T00:39:33;26.80;;;7.20;;
43706;SDS011;61348;53.392;-6.248;2023-02-25T00:42:30;29.25;;;6.63;;
43706;SDS011;61348;53.392;-6.248;2023-02-25T00:45:17;33.60;;;9.63;;
43706;SDS011;61348;53.392;-6.248;2023-02-25T00:48:04;21.42;;;5.55;;
43706;SDS011;61348;53.392;-6.248;2023-02-25T00:50:51;20.60;;;6.68;;
43706;SDS011;61348;53.392;-6.248;2023-02-25T00:53:38;30.73;;;5.28;;
43706;SDS011;61348;53.392;-6.248;2023-02-25T00:56:26;23.13;;;4.85;;
43706;SDS011;61348;53.392;-6.248;2023-02-25T00:59:13;21.88;;;4.68;;
43706;SDS011;61348;53.392;-6.248;2023-02-25T01:02:00;25.17;;;5.55;;
43706;SDS011;61348;53.392;-6.248;2023-02-25T01:04:47;29.05;;;5.68;;
43706;SDS011;61348;53.392;-6.248;2023-02-25T01:07:34;21.85;;;5.00;;
43706;SDS011;61348;53.392;-6.248;2023-02-25T01:10:23;19.40;;;5.00;;
43706;SDS011;61348;53.392;-6.248;2023-02-25T01:13:10;25.08;;;5.25;;
43706;SDS011;61348;53.392;-6.248;2023-02-25T01:15:57;18.85;;;5.10;;
43706;SDS011;61348;53.392;-6.248;2023-02-25T01:18:44;21.13;;;5.50;;
43706;SDS011;61348;53.392;-6.248;2023-02-25T01:21:33;16.40;;;4.22;;
43706;SDS011;61348;53.392;-6.248;2023-02-25T01:24:26;18.48;;;5.00;;
43706;SDS011;61348;53.392;-6.248;2023-02-25T01:27:15;22.98;;;5.78;;
43706;SDS011;61348;53.392;-6.248;2023-02-25T01:30:02;18.05;;;4.57;;
43706;SDS011;61348;53.392;-6.248;2023-02-25T01:32:50;20.85;;;4.97;;
43706;SDS011;61348;53.392;-6.248;2023-02-25T01:35:38;24.58;;;5.80;;
43706;SDS011;61348;53.392;-6.248;2023-02-25T01:38:25;19.52;;;3.78;;
43706;SDS011;61348;53.392;-6.248;2023-02-25T01:41:12;11.32;;;3.90;;
43706;SDS011;61348;53.392;-6.248;2023-02-25T01:47:20;16.38;;;4.93;;
43706;SDS011;61348;53.392;-6.248;2023-02-25T01:50:08;20.50;;;5.57;;
43706;SDS011;61348;53.392;-6.248;2023-02-25T01:52:55;23.58;;;6.65;;
43706;SDS011;61348;53.392;-6.248;2023-02-25T01:55:47;20.90;;;4.17;;
43706;SDS011;61348;53.392;-6.248;2023-02-25T01:58:35;21.60;;;6.22;;
43706;SDS011;61348;53.392;-6.248;2023-02-25T02:01:22;19.17;;;4.68;;
43706;SDS011;61348;53.392;-6.248;2023-02-25T02:04:13;18.90;;;4.68;;
43706;SDS011;61348;53.392;-6.248;2023-02-25T02:07:02;24.25;;;5.45;;
43706;SDS011;61348;53.392;-6.248;2023-02-25T02:09:49;16.30;;;4.65;;
43706;SDS011;61348;53.392;-6.248;2023-02-25T02:12:43;22.00;;;5.22;;
43706;SDS011;61348;53.392;-6.248;2023-02-25T02:15:33;25.67;;;5.45;;
43706;SDS011;61348;53.392;-6.248;2023-02-25T02:28:09;22.30;;;7.40;;
43706;SDS011;61348;53.392;-6.248;2023-02-25T02:30:52;24.67;;;6.13;;
43706;SDS011;61348;53.392;-6.248;2023-02-25T02:37:35;17.02;;;3.88;;
43706;SDS011;61348;53.392;-6.248;2023-02-25T02:43:34;22.30;;;5.15;;
43706;SDS011;61348;53.392;-6.248;2023-02-25T02:46:27;21.25;;;4.72;;
43706;SDS011;61348;53.392;-6.248;2023-02-25T02:52:45;16.95;;;5.93;;
43706;SDS011;61348;53.392;-6.248;2023-02-25T02:55:44;19.92;;;4.22;;
43706;SDS011;61348;53.392;-6.248;2023-02-25T02:58:35;21.17;;;5.57;;
43706;SDS011;61348;53.392;-6.248;2023-02-25T03:01:29;15.60;;;4.38;;
43706;SDS011;61348;53.392;-6.248;2023-02-25T03:04:22;16.70;;;3.93;;
43706;SDS011;61348;53.392;-6.248;2023-02-25T03:07:13;14.60;;;3.60;;
43706;SDS011;61348;53.392;-6.248;2023-02-25T03:10:04;16.48;;;3.88;;
43706;SDS011;61348;53.392;-6.248;2023-02-25T03:12:54;16.80;;;4.32;;
43706;SDS011;61348;53.392;-6.248;2023-02-25T03:15:41;16.88;;;3.67;;
43706;SDS011;61348;53.392;-6.248;2023-02-25T03:21:42;16.02;;;5.07;;
43706;SDS011;61348;53.392;-6.248;2023-02-25T03:24:36;20.38;;;3.63;;
43706;SDS011;61348;53.392;-6.248;2023-02-25T03:27:38;17.05;;;5.07;;
43706;SDS011;61348;53.392;-6.248;2023-02-25T03:30:39;16.60;;;4.65;;
43706;SDS011;61348;53.392;-6.248;2023-02-25T03:33:39;18.67;;;3.88;;
43706;SDS011;61348;53.392;-6.248;2023-02-25T03:36:41;23.60;;;4.80;;
43706;SDS011;61348;53.392;-6.248;2023-02-25T03:39:33;13.38;;;3.47;;
43706;SDS011;61348;53.392;-6.248;2023-02-25T03:42:26;13.90;;;3.10;;
43706;SDS011;61348;53.392;-6.248;2023-02-25T03:45:17;16.83;;;4.72;;
43706;SDS011;61348;53.392;-6.248;2023-02-25T03:48:06;25.75;;;5.93;;
43706;SDS011;61348;53.392;-6.248;2023-02-25T03:51:00;12.75;;;3.10;;
43706;SDS011;61348;53.392;-6.248;2023-02-25T03:53:48;12.63;;;3.83;;
43706;SDS011;61348;53.392;-6.248;2023-02-25T03:56:40;8.75;;;2.72;;
43706;SDS011;61348;53.392;-6.248;2023-02-25T03:59:31;21.40;;;3.17;;
43706;SDS011;61348;53.392;-6.248;2023-02-25T04:02:18;9.25;;;2.63;;
43706;SDS011;61348;53.392;-6.248;2023-02-25T04:05:06;14.95;;;3.33;;
43706;SDS011;61348;53.392;-6.248;2023-02-25T04:07:56;12.40;;;3.03;;
43706;SDS011;61348;53.392;-6.248;2023-02-25T04:10:45;15.07;;;2.75;;
43706;SDS011;61348;53.392;-6.248;2023-02-25T04:13:32;9.02;;;3.03;;
43706;SDS011;61348;53.392;-6.248;2023-02-25T04:16:19;13.27;;;2.85;;
43706;SDS011;61348;53.392;-6.248;2023-02-25T04:19:06;11.07;;;2.78;;
43706;SDS011;61348;53.392;-6.248;2023-02-25T04:21:53;17.95;;;4.30;;
43706;SDS011;61348;53.392;-6.248;2023-02-25T04:24:40;11.68;;;2.65;;
43706;SDS011;61348;53.392;-6.248;2023-02-25T04:27:27;7.63;;;2.60;;
43706;SDS011;61348;53.392;-6.248;2023-02-25T04:30:14;13.18;;;2.42;;
43706;SDS011;61348;53.392;-6.248;2023-02-25T04:33:01;13.10;;;3.20;;
43706;SDS011;61348;53.392;-6.248;2023-02-25T04:35:49;12.25;;;2.80;;
43706;SDS011;61348;53.392;-6.248;2023-02-25T04:38:36;4.15;;;2.03;;
43706;SDS011;61348;53.392;-6.248;2023-02-25T04:41:23;10.07;;;2.53;;
43706;SDS011;61348;53.392;-6.248;2023-02-25T04:44:15;15.40;;;3.58;;
43706;SDS011;61348;53.392;-6.248;2023-02-25T04:47:02;9.30;;;2.30;;
43706;SDS011;61348;53.392;-6.248;2023-02-25T04:49:49;15.40;;;2.25;;
43706;SDS011;61348;53.392;-6.248;2023-02-25T04:52:36;10.20;;;1.70;;
43706;SDS011;61348;53.392;-6.248;2023-02-25T04:55:23;5.00;;;1.30;;
43706;SDS011;61348;53.392;-6.248;2023-02-25T04:58:10;6.97;;;1.58;;
43706;SDS011;61348;53.392;-6.248;2023-02-25T05:00:58;10.73;;;1.35;;
43706;SDS011;61348;53.392;-6.248;2023-02-25T05:03:48;5.93;;;1.17;;
43706;SDS011;61348;53.392;-6.248;2023-02-25T05:06:35;4.32;;;1.08;;
43706;SDS011;61348;53.392;-6.248;2023-02-25T05:09:22;8.95;;;1.23;;
43706;SDS011;61348;53.392;-6.248;2023-02-25T05:12:09;3.45;;;2.03;;
43706;SDS011;61348;53.392;-6.248;2023-02-25T05:14:56;3.13;;;0.80;;
43706;SDS011;61348;53.392;-6.248;2023-02-25T05:17:43;5.45;;;0.88;;
43706;SDS011;61348;53.392;-6.248;2023-02-25T05:20:30;5.70;;;0.90;;
43706;SDS011;61348;53.392;-6.248;2023-02-25T05:23:17;3.47;;;0.50;;
43706;SDS011;61348;53.392;-6.248;2023-02-25T05:26:04;1.75;;;1.00;;
43706;SDS011;61348;53.392;-6.248;2023-02-25T05:28:52;2.20;;;0.80;;
43706;SDS011;61348;53.392;-6.248;2023-02-25T05:31:41;6.40;;;0.73;;
43706;SDS011;61348;53.392;-6.248;2023-02-25T05:34:28;4.55;;;1.00;;
43706;SDS011;61348;53.392;-6.248;2023-02-25T05:37:15;4.53;;;1.00;;
43706;SDS011;61348;53.392;-6.248;2023-02-25T05:40:02;4.57;;;1.02;;
43706;SDS011;61348;53.392;-6.248;2023-02-25T05:42:50;4.18;;;0.50;;
43706;SDS011;61348;53.392;-6.248;2023-02-25T05:45:36;5.65;;;1.20;;
43706;SDS011;61348;53.392;-6.248;2023-02-25T05:48:23;6.78;;;1.10;;
43706;SDS011;61348;53.392;-6.248;2023-02-25T05:51:12;4.57;;;1.10;;
43706;SDS011;61348;53.392;-6.248;2023-02-25T05:54:04;5.45;;;0.90;;
43706;SDS011;61348;53.392;-6.248;2023-02-25T05:56:51;3.50;;;0.75;;
43706;SDS011;61348;53.392;-6.248;2023-02-25T05:59:38;4.75;;;0.85;;
43706;SDS011;61348;53.392;-6.248;2023-02-25T06:02:25;3.90;;;0.70;;
43706;SDS011;61348;53.392;-6.248;2023-02-25T06:05:12;3.17;;;0.70;;
43706;SDS011;61348;53.392;-6.248;2023-02-25T06:07:59;5.60;;;0.85;;
43706;SDS011;61348;53.392;-6.248;2023-02-25T06:10:46;2.47;;;0.70;;
43706;SDS011;61348;53.392;-6.248;2023-02-25T06:13:34;3.78;;;0.82;;
43706;SDS011;61348;53.392;-6.248;2023-02-25T06:16:21;3.97;;;0.73;;
43706;SDS011;61348;53.392;-6.248;2023-02-25T06:19:11;4.68;;;0.77;;
43706;SDS011;61348;53.392;-6.248;2023-02-25T06:21:58;2.25;;;0.55;;
43706;SDS011;61348;53.392;-6.248;2023-02-25T06:24:45;3.63;;;0.55;;
43706;SDS011;61348;53.392;-6.248;2023-02-25T06:27:32;4.20;;;1.00;;
43706;SDS011;61348;53.392;-6.248;2023-02-25T06:30:19;5.57;;;0.88;;
43706;SDS011;61348;53.392;-6.248;2023-02-25T06:33:06;3.85;;;0.95;;
43706;SDS011;61348;53.392;-6.248;2023-02-25T06:35:53;1.75;;;0.55;;
43706;SDS011;61348;53.392;-6.248;2023-02-25T06:38:41;10.40;;;0.65;;
43706;SDS011;61348;53.392;-6.248;2023-02-25T06:41:29;1.55;;;0.43;;
43706;SDS011;61348;53.392;-6.248;2023-02-25T06:44:16;3.22;;;0.70;;
43706;SDS011;61348;53.392;-6.248;2023-02-25T06:47:03;3.10;;;0.65;;
43706;SDS011;61348;53.392;-6.248;2023-02-25T06:49:50;4.78;;;0.70;;
43706;SDS011;61348;53.392;-6.248;2023-02-25T06:52:37;5.63;;;0.50;;
43706;SDS011;61348;53.392;-6.248;2023-02-25T06:55:24;3.20;;;0.77;;
43706;SDS011;61348;53.392;-6.248;2023-02-25T06:58:12;3.97;;;0.50;;
43706;SDS011;61348;53.392;-6.248;2023-02-25T07:01:04;5.85;;;0.68;;
43706;SDS011;61348;53.392;-6.248;2023-02-25T07:03:52;1.77;;;0.40;;
43706;SDS011;61348;53.392;-6.248;2023-02-25T07:06:39;1.88;;;0.57;;
43706;SDS011;61348;53.392;-6.248;2023-02-25T07:09:26;1.35;;;0.40;;
43706;SDS011;61348;53.392;-6.248;2023-02-25T07:12:13;6.15;;;0.70;;
43706;SDS011;61348;53.392;-6.248;2023-02-25T07:15:00;5.20;;;0.60;;
43706;SDS011;61348;53.392;-6.248;2023-02-25T07:17:47;2.78;;;0.93;;
43706;SDS011;61348;53.392;-6.248;2023-02-25T07:20:34;0.77;;;0.50;;
43706;SDS011;61348;53.392;-6.248;2023-02-25T07:23:24;2.83;;;0.60;;
43706;SDS011;61348;53.392;-6.248;2023-02-25T07:26:12;1.85;;;0.47;;
43706;SDS011;61348;53.392;-6.248;2023-02-25T07:28:59;1.83;;;0.47;;
43706;SDS011;61348;53.392;-6.248;2023-02-25T07:31:46;5.00;;;0.60;;
43706;SDS011;61348;53.392;-6.248;2023-02-25T07:34:34;0.73;;;0.20;;
43706;SDS011;61348;53.392;-6.248;2023-02-25T07:37:22;2.15;;;0.63;;
43706;SDS011;61348;53.392;-6.248;2023-02-25T07:40:09;4.53;;;1.02;;
43706;SDS011;61348;53.392;-6.248;2023-02-25T07:42:58;1.85;;;0.50;;
43706;SDS011;61348;53.392;-6.248;2023-02-25T07:45:45;5.45;;;0.40;;
43706;SDS011;61348;53.392;-6.248;2023-02-25T07:48:35;6.70;;;0.85;;
43706;SDS011;61348;53.392;-6.248;2023-02-25T07:51:22;3.30;;;0.60;;
43706;SDS011;61348;53.392;-6.248;2023-02-25T07:54:11;7.28;;;0.80;;
43706;SDS011;61348;53.392;-6.248;2023-02-25T07:56:58;3.20;;;0.35;;
43706;SDS011;61348;53.392;-6.248;2023-02-25T07:59:45;4.80;;;0.45;;
43706;SDS011;61348;53.392;-6.248;2023-02-25T08:02:32;2.35;;;0.60;;
43706;SDS011;61348;53.392;-6.248;2023-02-25T08:05:19;3.35;;;0.73;;
43706;SDS011;61348;53.392;-6.248;2023-02-25T08:08:08;3.17;;;0.43;;
43706;SDS011;61348;53.392;-6.248;2023-02-25T08:10:55;1.05;;;0.40;;
43706;SDS011;61348;53.392;-6.248;2023-02-25T08:13:42;2.67;;;0.88;;
43706;SDS011;61348;53.392;-6.248;2023-02-25T08:16:29;2.85;;;0.45;;
43706;SDS011;61348;53.392;-6.248;2023-02-25T08:19:16;0.70;;;0.30;;
43706;SDS011;61348;53.392;-6.248;2023-02-25T08:22:03;1.92;;;0.57;;
43706;SDS011;61348;53.392;-6.248;2023-02-25T08:24:50;1.23;;;0.30;;
43706;SDS011;61348;53.392;-6.248;2023-02-25T08:27:37;7.05;;;1.35;;
43706;SDS011;61348;53.392;-6.248;2023-02-25T08:30:24;3.03;;;0.40;;
43706;SDS011;61348;53.392;-6.248;2023-02-25T08:33:11;0.95;;;0.60;;
43706;SDS011;61348;53.392;-6.248;2023-02-25T08:36:08;4.07;;;0.70;;
43706;SDS011;61348;53.392;-6.248;2023-02-25T08:38:58;4.18;;;0.63;;
43706;SDS011;61348;53.392;-6.248;2023-02-25T08:41:45;0.70;;;0.30;;
43706;SDS011;61348;53.392;-6.248;2023-02-25T08:44:32;5.00;;;1.20;;
43706;SDS011;61348;53.392;-6.248;2023-02-25T08:47:19;3.50;;;0.50;;
43706;SDS011;61348;53.392;-6.248;2023-02-25T08:50:06;0.98;;;0.32;;
43706;SDS011;61348;53.392;-6.248;2023-02-25T08:52:55;2.67;;;0.80;;
43706;SDS011;61348;53.392;-6.248;2023-02-25T08:55:43;4.95;;;1.10;;
43706;SDS011;61348;53.392;-6.248;2023-02-25T08:58:30;0.90;;;0.40;;
43706;SDS011;61348;53.392;-6.248;2023-02-25T09:01:18;4.38;;;0.60;;
43706;SDS011;61348;53.392;-6.248;2023-02-25T09:04:05;3.30;;;0.30;;
43706;SDS011;61348;53.392;-6.248;2023-02-25T09:06:53;2.25;;;0.80;;
43706;SDS011;61348;53.392;-6.248;2023-02-25T09:09:40;5.65;;;0.55;;
43706;SDS011;61348;53.392;-6.248;2023-02-25T09:12:27;2.53;;;0.52;;
43706;SDS011;61348;53.392;-6.248;2023-02-25T09:15:16;4.35;;;1.40;;
43706;SDS011;61348;53.392;-6.248;2023-02-25T09:18:03;1.77;;;0.60;;
43706;SDS011;61348;53.392;-6.248;2023-02-25T09:20:50;0.90;;;0.50;;
43706;SDS011;61348;53.392;-6.248;2023-02-25T09:23:37;4.13;;;1.17;;
43706;SDS011;61348;53.392;-6.248;2023-02-25T09:26:24;3.90;;;1.35;;
43706;SDS011;61348;53.392;-6.248;2023-02-25T09:29:11;3.95;;;0.50;;
43706;SDS011;61348;53.392;-6.248;2023-02-25T09:31:58;1.80;;;0.70;;
43706;SDS011;61348;53.392;-6.248;2023-02-25T09:34:46;5.60;;;1.05;;
43706;SDS011;61348;53.392;-6.248;2023-02-25T09:37:34;8.85;;;1.25;;
43706;SDS011;61348;53.392;-6.248;2023-02-25T09:40:21;5.30;;;1.13;;
43706;SDS011;61348;53.392;-6.248;2023-02-25T09:43:22;8.40;;;1.33;;
43706;SDS011;61348;53.392;-6.248;2023-02-25T09:46:14;5.00;;;1.17;;
43706;SDS011;61348;53.392;-6.248;2023-02-25T09:49:16;5.50;;;1.38;;
43706;SDS011;61348;53.392;-6.248;2023-02-25T09:54:58;4.35;;;0.88;;
43706;SDS011;61348;53.392;-6.248;2023-02-25T09:57:54;8.07;;;1.05;;
43706;SDS011;61348;53.392;-6.248;2023-02-25T10:07:02;4.45;;;1.30;;
43706;SDS011;61348;53.392;-6.248;2023-02-25T10:10:05;8.38;;;1.50;;
43706;SDS011;61348;53.392;-6.248;2023-02-25T10:16:36;3.28;;;0.60;;
43706;SDS011;61348;53.392;-6.248;2023-02-25T10:25:55;2.05;;;0.25;;
43706;SDS011;61348;53.392;-6.248;2023-02-25T10:28:53;2.28;;;0.40;;
43706;SDS011;61348;53.392;-6.248;2023-02-25T10:31:46;2.58;;;0.55;;
43706;SDS011;61348;53.392;-6.248;2023-02-25T10:34:33;1.52;;;0.40;;
43706;SDS011;61348;53.392;-6.248;2023-02-25T10:37:34;5.70;;;0.50;;
43706;SDS011;61348;53.392;-6.248;2023-02-25T10:40:24;4.25;;;0.47;;
43706;SDS011;61348;53.392;-6.248;2023-02-25T10:43:18;0.75;;;0.40;;
43706;SDS011;61348;53.392;-6.248;2023-02-25T10:49:24;0.95;;;0.40;;
43706;SDS011;61348;53.392;-6.248;2023-02-25T10:52:13;3.28;;;0.63;;
43706;SDS011;61348;53.392;-6.248;2023-02-25T10:55:03;3.47;;;0.50;;
43706;SDS011;61348;53.392;-6.248;2023-02-25T10:57:50;1.48;;;0.40;;
43706;SDS011;61348;53.392;-6.248;2023-02-25T11:00:37;11.13;;;1.05;;
43706;SDS011;61348;53.392;-6.248;2023-02-25T11:03:28;8.40;;;0.80;;
43706;SDS011;61348;53.392;-6.248;2023-02-25T11:14:53;3.35;;;0.90;;
43706;SDS011;61348;53.392;-6.248;2023-02-25T11:17:42;3.30;;;0.70;;
43706;SDS011;61348;53.392;-6.248;2023-02-25T11:20:30;3.13;;;0.70;;
43706;SDS011;61348;53.392;-6.248;2023-02-25T11:23:22;4.10;;;0.68;;
43706;SDS011;61348;53.392;-6.248;2023-02-25T11:26:25;6.82;;;0.65;;
43706;SDS011;61348;53.392;-6.248;2023-02-25T11:29:18;2.42;;;0.65;;
43706;SDS011;61348;53.392;-6.248;2023-02-25T11:35:02;1.55;;;0.60;;
43706;SDS011;61348;53.392;-6.248;2023-02-25T11:37:55;3.50;;;0.88;;
43706;SDS011;61348;53.392;-6.248;2023-02-25T11:40:44;2.47;;;1.38;;
43706;SDS011;61348;53.392;-6.248;2023-02-25T11:43:35;5.68;;;0.60;;
43706;SDS011;61348;53.392;-6.248;2023-02-25T11:46:26;2.45;;;0.57;;
43706;SDS011;61348;53.392;-6.248;2023-02-25T11:49:20;2.78;;;0.70;;
43706;SDS011;61348;53.392;-6.248;2023-02-25T11:55:35;4.60;;;1.27;;
43706;SDS011;61348;53.392;-6.248;2023-02-25T12:17:56;4.97;;;1.00;;
43706;SDS011;61348;53.392;-6.248;2023-02-25T12:33:04;9.07;;;1.02;;
43706;SDS011;61348;53.392;-6.248;2023-02-25T12:36:20;4.45;;;1.23;;
43706;SDS011;61348;53.392;-6.248;2023-02-25T12:58:42;13.07;;;1.63;;
43706;SDS011;61348;53.392;-6.248;2023-02-25T13:01:52;6.70;;;1.20;;
43706;SDS011;61348;53.392;-6.248;2023-02-25T13:16:52;7.78;;;1.50;;
43706;SDS011;61348;53.392;-6.248;2023-02-25T13:19:53;15.60;;;2.88;;
43706;SDS011;61348;53.392;-6.248;2023-02-25T13:25:49;3.17;;;0.73;;
43706;SDS011;61348;53.392;-6.248;2023-02-25T13:36:25;4.13;;;0.90;;
43706;SDS011;61348;53.392;-6.248;2023-02-25T13:53:40;3.97;;;0.77;;
43706;SDS011;61348;53.392;-6.248;2023-02-25T13:56:42;7.45;;;1.35;;
43706;SDS011;61348;53.392;-6.248;2023-02-25T14:15:53;8.35;;;1.35;;
43706;SDS011;61348;53.392;-6.248;2023-02-25T14:19:03;6.18;;;1.45;;
43706;SDS011;61348;53.392;-6.248;2023-02-25T14:29:30;3.33;;;1.00;;
43706;SDS011;61348;53.392;-6.248;2023-02-25T14:35:14;5.35;;;1.10;;
43706;SDS011;61348;53.392;-6.248;2023-02-25T14:38:07;4.20;;;0.98;;
43706;SDS011;61348;53.392;-6.248;2023-02-25T14:44:08;4.05;;;1.40;;
43706;SDS011;61348;53.392;-6.248;2023-02-25T14:47:01;4.75;;;1.58;;
43706;SDS011;61348;53.392;-6.248;2023-02-25T14:49:58;3.92;;;2.50;;
43706;SDS011;61348;53.392;-6.248;2023-02-25T14:55:45;23.90;;;3.05;;
43706;SDS011;61348;53.392;-6.248;2023-02-25T15:18:01;5.18;;;1.30;;
43706;SDS011;61348;53.392;-6.248;2023-02-25T15:21:02;8.40;;;2.00;;
43706;SDS011;61348;53.392;-6.248;2023-02-25T15:27:40;6.07;;;1.25;;
43706;SDS011;61348;53.392;-6.248;2023-02-25T15:33:48;9.20;;;2.20;;
43706;SDS011;61348;53.392;-6.248;2023-02-25T15:36:40;5.03;;;1.10;;
43706;SDS011;61348;53.392;-6.248;2023-02-25T15:45:37;4.88;;;1.05;;
43706;SDS011;61348;53.392;-6.248;2023-02-25T15:48:30;3.92;;;1.30;;
43706;SDS011;61348;53.392;-6.248;2023-02-25T15:51:36;7.55;;;2.80;;
43706;SDS011;61348;53.392;-6.248;2023-02-25T16:09:24;3.78;;;1.15;;
43706;SDS011;61348;53.392;-6.248;2023-02-25T16:12:13;5.40;;;0.73;;
43706;SDS011;61348;53.392;-6.248;2023-02-25T16:15:01;4.97;;;1.00;;
43706;SDS011;61348;53.392;-6.248;2023-02-25T16:17:49;2.90;;;0.85;;
43706;SDS011;61348;53.392;-6.248;2023-02-25T16:20:40;8.82;;;1.50;;
43706;SDS011;61348;53.392;-6.248;2023-02-25T16:23:32;3.20;;;1.25;;
43706;SDS011;61348;53.392;-6.248;2023-02-25T16:33:05;5.78;;;1.10;;
43706;SDS011;61348;53.392;-6.248;2023-02-25T16:36:13;7.28;;;1.60;;
43706;SDS011;61348;53.392;-6.248;2023-02-25T16:39:11;9.35;;;2.95;;
43706;SDS011;61348;53.392;-6.248;2023-02-25T16:42:05;6.20;;;1.20;;
43706;SDS011;61348;53.392;-6.248;2023-02-25T16:45:00;9.57;;;1.42;;
43706;SDS011;61348;53.392;-6.248;2023-02-25T16:47:54;7.35;;;1.00;;
43706;SDS011;61348;53.392;-6.248;2023-02-25T16:50:45;11.32;;;1.65;;
43706;SDS011;61348;53.392;-6.248;2023-02-25T16:53:33;6.10;;;1.98;;
43706;SDS011;61348;53.392;-6.248;2023-02-25T16:56:21;6.18;;;2.00;;
43706;SDS011;61348;53.392;-6.248;2023-02-25T17:01:59;5.65;;;1.85;;
43706;SDS011;61348;53.392;-6.248;2023-02-25T17:05:09;10.43;;;1.98;;
43706;SDS011;61348;53.392;-6.248;2023-02-25T17:08:13;6.73;;;2.13;;
43706;SDS011;61348;53.392;-6.248;2023-02-25T17:13:52;9.63;;;3.25;;
43706;SDS011;61348;53.392;-6.248;2023-02-25T17:16:41;8.00;;;3.33;;
43706;SDS011;61348;53.392;-6.248;2023-02-25T17:19:33;8.20;;;3.70;;
43706;SDS011;61348;53.392;-6.248;2023-02-25T17:22:20;9.20;;;2.90;;
43706;SDS011;61348;53.392;-6.248;2023-02-25T17:25:12;8.10;;;2.33;;
43706;SDS011;61348;53.392;-6.248;2023-02-25T17:28:01;6.43;;;2.22;;
43706;SDS011;61348;53.392;-6.248;2023-02-25T17:30:49;3.78;;;1.45;;
43706;SDS011;61348;53.392;-6.248;2023-02-25T17:33:48;8.70;;;3.03;;
43706;SDS011;61348;53.392;-6.248;2023-02-25T17:36:39;4.77;;;1.53;;
43706;SDS011;61348;53.392;-6.248;2023-02-25T17:39:27;9.80;;;3.60;;
43706;SDS011;61348;53.392;-6.248;2023-02-25T17:42:28;6.57;;;2.47;;
43706;SDS011;61348;53.392;-6.248;2023-02-25T17:48:32;6.70;;;2.03;;
43706;SDS011;61348;53.392;-6.248;2023-02-25T17:51:30;12.10;;;3.78;;
43706;SDS011;61348;53.392;-6.248;2023-02-25T17:54:20;10.32;;;3.58;;
43706;SDS011;61348;53.392;-6.248;2023-02-25T17:57:20;5.50;;;1.88;;
43706;SDS011;61348;53.392;-6.248;2023-02-25T18:00:11;5.43;;;2.22;;
43706;SDS011;61348;53.392;-6.248;2023-02-25T18:06:12;6.90;;;1.60;;
43706;SDS011;61348;53.392;-6.248;2023-02-25T18:12:24;3.90;;;1.73;;
43706;SDS011;61348;53.392;-6.248;2023-02-25T18:15:15;5.15;;;2.03;;
43706;SDS011;61348;53.392;-6.248;2023-02-25T18:18:05;2.40;;;1.50;;
43706;SDS011;61348;53.392;-6.248;2023-02-25T18:20:56;6.07;;;2.42;;
43706;SDS011;61348;53.392;-6.248;2023-02-25T18:23:43;6.20;;;2.45;;
43706;SDS011;61348;53.392;-6.248;2023-02-25T18:26:31;3.90;;;1.50;;
43706;SDS011;61348;53.392;-6.248;2023-02-25T18:29:19;8.68;;;2.75;;
43706;SDS011;61348;53.392;-6.248;2023-02-25T18:32:06;5.97;;;2.22;;
43706;SDS011;61348;53.392;-6.248;2023-02-25T18:34:53;9.68;;;2.40;;
43706;SDS011;61348;53.392;-6.248;2023-02-25T18:37:40;9.40;;;2.30;;
43706;SDS011;61348;53.392;-6.248;2023-02-25T18:40:32;10.18;;;2.88;;
43706;SDS011;61348;53.392;-6.248;2023-02-25T18:43:25;11.77;;;3.65;;
43706;SDS011;61348;53.392;-6.248;2023-02-25T18:46:16;6.63;;;2.13;;
43706;SDS011;61348;53.392;-6.248;2023-02-25T18:49:03;7.05;;;2.22;;
43706;SDS011;61348;53.392;-6.248;2023-02-25T18:51:50;9.77;;;2.70;;
43706;SDS011;61348;53.392;-6.248;2023-02-25T18:54:37;8.35;;;2.05;;
43706;SDS011;61348;53.392;-6.248;2023-02-25T18:57:26;7.47;;;3.75;;
43706;SDS011;61348;53.392;-6.248;2023-02-25T19:00:16;4.70;;;2.33;;
43706;SDS011;61348;53.392;-6.248;2023-02-25T19:03:04;8.95;;;2.92;;
43706;SDS011;61348;53.392;-6.248;2023-02-25T19:05:53;9.38;;;2.47;;
43706;SDS011;61348;53.392;-6.248;2023-02-25T19:08:40;9.15;;;2.20;;
43706;SDS011;61348;53.392;-6.248;2023-02-25T19:11:29;7.43;;;2.65;;
43706;SDS011;61348;53.392;-6.248;2023-02-25T19:14:18;5.22;;;1.80;;
43706;SDS011;61348;53.392;-6.248;2023-02-25T19:17:08;9.48;;;2.20;;
43706;SDS011;61348;53.392;-6.248;2023-02-25T19:20:00;11.43;;;3.95;;
43706;SDS011;61348;53.392;-6.248;2023-02-25T19:22:49;13.98;;;2.55;;
43706;SDS011;61348;53.392;-6.248;2023-02-25T19:25:37;11.02;;;3.05;;
43706;SDS011;61348;53.392;-6.248;2023-02-25T19:28:24;7.05;;;2.58;;
43706;SDS011;61348;53.392;-6.248;2023-02-25T19:31:12;5.32;;;2.03;;
43706;SDS011;61348;53.392;-6.248;2023-02-25T19:33:59;5.78;;;2.88;;
43706;SDS011;61348;53.392;-6.248;2023-02-25T19:36:46;8.60;;;2.40;;
43706;SDS011;61348;53.392;-6.248;2023-02-25T19:39:33;13.93;;;4.68;;
43706;SDS011;61348;53.392;-6.248;2023-02-25T19:42:20;10.15;;;2.15;;
43706;SDS011;61348;53.392;-6.248;2023-02-25T19:45:08;15.57;;;4.60;;
43706;SDS011;61348;53.392;-6.248;2023-02-25T19:47:57;12.05;;;3.25;;
43706;SDS011;61348;53.392;-6.248;2023-02-25T19:50:46;7.65;;;5.28;;
43706;SDS011;61348;53.392;-6.248;2023-02-25T19:53:33;11.00;;;3.53;;
43706;SDS011;61348;53.392;-6.248;2023-02-25T19:56:21;7.85;;;4.55;;
43706;SDS011;61348;53.392;-6.248;2023-02-25T19:59:08;6.03;;;2.30;;
43706;SDS011;61348;53.392;-6.248;2023-02-25T20:01:57;7.57;;;2.20;;
43706;SDS011;61348;53.392;-6.248;2023-02-25T20:04:44;14.40;;;3.40;;
43706;SDS011;61348;53.392;-6.248;2023-02-25T20:07:31;7.88;;;3.97;;
43706;SDS011;61348;53.392;-6.248;2023-02-25T20:10:18;8.80;;;2.97;;
43706;SDS011;61348;53.392;-6.248;2023-02-25T20:13:07;9.35;;;3.00;;
43706;SDS011;61348;53.392;-6.248;2023-02-25T20:15:58;11.57;;;4.30;;
43706;SDS011;61348;53.392;-6.248;2023-02-25T20:18:49;14.80;;;4.20;;
43706;SDS011;61348;53.392;-6.248;2023-02-25T20:21:37;10.80;;;3.63;;
43706;SDS011;61348;53.392;-6.248;2023-02-25T20:24:24;5.32;;;2.15;;
43706;SDS011;61348;53.392;-6.248;2023-02-25T20:27:11;7.95;;;2.67;;
43706;SDS011;61348;53.392;-6.248;2023-02-25T20:29:58;5.00;;;1.80;;
43706;SDS011;61348;53.392;-6.248;2023-02-25T20:32:45;5.53;;;1.40;;
43706;SDS011;61348;53.392;-6.248;2023-02-25T20:35:32;8.57;;;2.33;;
43706;SDS011;61348;53.392;-6.248;2023-02-25T20:38:25;15.73;;;4.25;;
43706;SDS011;61348;53.392;-6.248;2023-02-25T20:41:19;3.35;;;1.50;;
43706;SDS011;61348;53.392;-6.248;2023-02-25T20:44:06;7.70;;;2.38;;
43706;SDS011;61348;53.392;-6.248;2023-02-25T20:46:54;8.23;;;3.08;;
43706;SDS011;61348;53.392;-6.248;2023-02-25T20:49:41;5.53;;;1.15;;
43706;SDS011;61348;53.392;-6.248;2023-02-25T20:52:28;7.68;;;1.48;;
43706;SDS011;61348;53.392;-6.248;2023-02-25T20:55:15;12.20;;;3.45;;
43706;SDS011;61348;53.392;-6.248;2023-02-25T20:58:02;13.90;;;2.90;;